Time;durP1;ratioP1;P1;durP2;ratioP2;P2;SDS_P1;SDS_P2;PMS_P1;PMS_P2;Temp;Humidity;BMP_temperature;BMP_pressure;BME280_temperature;BME280_humidity;BME280_pressure;Samples;Min_cycle;Max_cycle;Signal;HPM_P1;HPM_P2
2023/12/22 00:02:06;;;;;;;14.87;14.27;;;22.90;51.50;;;;;;4995240;28;20474;-66
2023/12/22 00:04:32;;;;;;;13.37;13.07;;;22.90;51.60;;;;;;4995185;28;20482;-65
2023/12/22 00:06:59;;;;;;;13.10;12.73;;;22.90;51.70;;;;;;4993444;28;20902;-65
2023/12/22 00:09:28;;;;;;;13.80;13.30;;;22.90;51.60;;;;;;4991878;28;20475;-64
2023/12/22 00:11:54;;;;;;;13.13;12.73;;;22.90;51.60;;;;;;4987148;28;20466;-66
2023/12/22 00:14:21;;;;;;;13.20;12.70;;;22.90;51.60;;;;;;4995185;28;20478;-65
2023/12/22 00:16:48;;;;;;;13.37;12.97;;;22.80;51.50;;;;;;4994787;28;20546;-65
2023/12/22 00:19:15;;;;;;;12.30;12.00;;;22.90;51.60;;;;;;4991839;28;20486;-65
2023/12/22 00:21:42;;;;;;;13.03;12.60;;;22.90;51.60;;;;;;4993635;28;20558;-65
2023/12/22 00:24:09;;;;;;;14.27;13.50;;;22.90;51.50;;;;;;4995038;28;20478;-65
2023/12/22 00:26:37;;;;;;;13.00;12.60;;;22.80;51.50;;;;;;4994306;28;20495;-65
2023/12/22 00:29:04;;;;;;;13.10;12.70;;;22.90;51.60;;;;;;5000678;23;20520;-63
2023/12/22 00:31:31;;;;;;;13.20;12.70;;;22.80;51.50;;;;;;4975429;28;20468;-62
2023/12/22 00:33:57;;;;;;;13.07;12.70;;;22.80;51.50;;;;;;4975636;28;20498;-63
2023/12/22 00:36:24;;;;;;;12.40;12.10;;;22.80;51.40;;;;;;4975292;28;20897;-62
2023/12/22 00:38:51;;;;;;;13.30;12.90;;;22.80;51.60;;;;;;4982885;28;20490;-62
2023/12/22 00:41:18;;;;;;;14.27;13.83;;;22.80;51.50;;;;;;4975364;28;20494;-62
2023/12/22 00:43:46;;;;;;;13.43;13.03;;;22.80;51.50;;;;;;4975491;28;20506;-62
2023/12/22 00:46:14;;;;;;;13.63;13.13;;;22.80;51.60;;;;;;4975109;28;20444;-62
2023/12/22 00:48:41;;;;;;;14.83;14.23;;;22.80;51.50;;;;;;4974931;28;20511;-62
2023/12/22 00:51:08;;;;;;;12.80;12.50;;;22.80;51.50;;;;;;4975236;28;20542;-62
2023/12/22 00:53:35;;;;;;;14.30;13.90;;;22.80;51.50;;;;;;4974967;28;20483;-62
2023/12/22 00:56:02;;;;;;;13.80;13.40;;;22.80;51.40;;;;;;4975072;28;20476;-62
2023/12/22 00:58:29;;;;;;;14.27;13.87;;;22.80;51.40;;;;;;4974877;28;20554;-62
2023/12/22 01:00:58;;;;;;;13.20;12.80;;;22.70;51.30;;;;;;4969370;28;20511;-62
2023/12/22 01:03:24;;;;;;;13.17;12.77;;;22.80;51.30;;;;;;4978967;28;20452;-62
2023/12/22 01:05:51;;;;;;;12.60;12.20;;;22.70;51.20;;;;;;4974666;28;20981;-62
2023/12/22 01:08:18;;;;;;;13.60;13.20;;;22.70;51.20;;;;;;4974688;28;20495;-63
2023/12/22 01:10:45;;;;;;;13.60;13.20;;;22.70;51.20;;;;;;4989175;28;20467;-63
2023/12/22 01:13:12;;;;;;;13.10;12.80;;;22.70;51.30;;;;;;4994355;28;20501;-62
2023/12/22 01:15:39;;;;;;;13.03;12.73;;;22.70;51.20;;;;;;4994209;28;20450;-62
2023/12/22 01:18:07;;;;;;;13.03;12.63;;;22.70;51.10;;;;;;4994029;28;20494;-62
2023/12/22 01:20:34;;;;;;;13.20;12.80;;;22.70;51.20;;;;;;4993464;28;20911;-62
2023/12/22 01:23:01;;;;;;;13.10;12.80;;;22.70;51.10;;;;;;4994072;28;20541;-62
2023/12/22 01:25:28;;;;;;;12.90;12.50;;;22.70;51.10;;;;;;4993950;28;20862;-63
2023/12/22 01:27:55;;;;;;;12.77;12.37;;;22.70;51.10;;;;;;4988686;28;20507;-62
2023/12/22 01:30:21;;;;;;;12.90;12.60;;;22.70;51.20;;;;;;4974532;28;20537;-62
2023/12/22 01:32:48;;;;;;;12.50;12.20;;;22.70;51.20;;;;;;4974216;28;20513;-62
2023/12/22 01:35:17;;;;;;;13.40;13.00;;;22.70;51.20;;;;;;4974297;28;20475;-62
2023/12/22 01:37:43;;;;;;;12.73;12.43;;;22.70;51.30;;;;;;4977035;28;20515;-62
2023/12/22 01:40:11;;;;;;;14.27;13.87;;;22.70;51.30;;;;;;4993895;28;20551;-62
2023/12/22 01:42:38;;;;;;;13.90;13.60;;;22.60;51.10;;;;;;4993751;28;20898;-62
2023/12/22 01:45:06;;;;;;;12.77;12.43;;;22.60;51.10;;;;;;4993543;28;20443;-62
2023/12/22 01:47:33;;;;;;;13.30;13.00;;;22.70;51.20;;;;;;4993359;28;20499;-62
2023/12/22 01:50:00;;;;;;;13.73;13.33;;;22.60;51.20;;;;;;4988014;28;20478;-62
2023/12/22 01:52:28;;;;;;;13.40;13.10;;;22.60;51.10;;;;;;4974007;28;20479;-63
2023/12/22 01:54:56;;;;;;;13.37;12.97;;;22.60;51.10;;;;;;4973950;28;20475;-62
2023/12/22 01:57:23;;;;;;;13.10;12.80;;;22.60;51.00;;;;;;4973774;28;20459;-62
2023/12/22 01:59:51;;;;;;;13.77;13.27;;;22.70;51.10;;;;;;4974133;28;20471;-62
2023/12/22 02:02:18;;;;;;;13.50;13.10;;;22.60;51.10;;;;;;4980060;28;20517;-62
2023/12/22 02:04:46;;;;;;;13.53;13.13;;;22.60;51.10;;;;;;4993224;28;20486;-63
2023/12/22 02:07:13;;;;;;;13.50;13.00;;;22.60;51.10;;;;;;4993108;28;20467;-62
2023/12/22 02:09:42;;;;;;;12.53;12.23;;;22.60;51.10;;;;;;4993238;28;20477;-62
2023/12/22 02:12:09;;;;;;;13.30;12.90;;;22.60;51.10;;;;;;4988453;28;20471;-62
2023/12/22 02:14:36;;;;;;;13.53;13.13;;;22.60;51.10;;;;;;4973570;28;20967;-62
2023/12/22 02:17:10;;;;;;;13.00;12.70;;;22.60;51.10;;;;;;4973300;28;20959;-62
2023/12/22 02:19:43;;;;;;;12.90;12.50;;;22.60;51.00;;;;;;4973517;28;20488;-62
2023/12/22 02:22:11;;;;;;;13.83;13.43;;;22.60;51.10;;;;;;4988726;28;21040;-62
2023/12/22 02:24:39;;;;;;;12.53;12.23;;;22.60;51.20;;;;;;4973410;28;20448;-62
2023/12/22 02:27:12;;;;;;;12.07;11.77;;;22.60;51.20;;;;;;4973127;28;20440;-62
2023/12/22 02:29:44;;;;;;;12.70;12.20;;;22.60;51.20;;;;;;4973585;28;20440;-62
2023/12/22 02:32:23;;;;;;;12.80;12.40;;;22.60;51.20;;;;;;4976294;28;20471;-62
2023/12/22 02:34:52;;;;;;;12.30;11.83;;;22.60;51.20;;;;;;4992786;28;20497;-62
2023/12/22 02:37:21;;;;;;;13.83;13.27;;;22.60;51.30;;;;;;4992585;28;20499;-62
2023/12/22 02:39:50;;;;;;;12.40;12.00;;;22.60;51.30;;;;;;4992919;28;20909;-62
2023/12/22 02:42:18;;;;;;;13.00;12.70;;;22.50;51.20;;;;;;4992486;28;20525;-62
2023/12/22 02:44:45;;;;;;;12.70;12.40;;;22.60;51.30;;;;;;4986595;28;20506;-62
2023/12/22 02:47:12;;;;;;;13.20;12.53;;;22.50;51.20;;;;;;4973137;28;20502;-62
2023/12/22 02:49:39;;;;;;;13.93;13.57;;;22.50;51.20;;;;;;4979801;28;20474;-62
2023/12/22 02:52:06;;;;;;;13.37;13.07;;;22.50;51.10;;;;;;4992464;28;20474;-62
2023/12/22 02:54:33;;;;;;;13.20;12.60;;;22.50;51.20;;;;;;4992480;28;20946;-62
2023/12/22 02:57:01;;;;;;;12.80;12.50;;;22.50;51.20;;;;;;4986707;28;20472;-62
2023/12/22 02:59:28;;;;;;;12.60;12.30;;;22.50;51.30;;;;;;4991256;28;20531;-62
2023/12/22 03:01:55;;;;;;;13.33;12.93;;;22.50;51.30;;;;;;4992318;28;20518;-62
2023/12/22 03:04:22;;;;;;;12.57;12.27;;;22.50;51.40;;;;;;4992361;28;20441;-62
2023/12/22 03:06:49;;;;;;;13.40;12.90;;;22.50;51.30;;;;;;4992678;28;20546;-62
2023/12/22 03:09:16;;;;;;;12.70;12.40;;;22.50;51.30;;;;;;4990580;28;20491;-62
2023/12/22 03:11:43;;;;;;;13.00;12.70;;;22.50;51.40;;;;;;4980900;28;20978;-62
2023/12/22 03:14:11;;;;;;;13.03;12.73;;;22.50;51.40;;;;;;4972995;28;20815;-62
2023/12/22 03:16:38;;;;;;;13.07;12.67;;;22.50;51.50;;;;;;4972806;28;20484;-62
2023/12/22 03:19:05;;;;;;;13.63;13.07;;;22.50;51.50;;;;;;4972718;28;20503;-62
2023/12/22 03:21:32;;;;;;;13.50;13.00;;;22.50;51.50;;;;;;4983839;28;20517;-62
2023/12/22 03:23:59;;;;;;;14.50;14.10;;;22.50;51.60;;;;;;4992333;28;20470;-62
2023/12/22 03:26:28;;;;;;;12.73;12.43;;;22.50;51.60;;;;;;4992327;28;20498;-62
2023/12/22 03:28:55;;;;;;;13.87;13.33;;;22.50;51.60;;;;;;4988180;28;20467;-62
2023/12/22 03:31:23;;;;;;;12.90;12.60;;;22.50;51.70;;;;;;4972731;28;20478;-62
2023/12/22 03:33:50;;;;;;;13.33;12.90;;;22.50;51.70;;;;;;4972830;28;20475;-62
2023/12/22 03:36:17;;;;;;;12.53;12.23;;;22.50;51.80;;;;;;4972834;28;20483;-62
2023/12/22 03:38:44;;;;;;;12.70;12.40;;;22.50;51.90;;;;;;4974249;28;20499;-62
2023/12/22 03:41:11;;;;;;;13.60;13.20;;;22.50;51.90;;;;;;4992075;28;20510;-62
2023/12/22 03:43:38;;;;;;;12.90;12.50;;;22.50;51.90;;;;;;4992220;28;20930;-62
2023/12/22 03:46:04;;;;;;;12.80;12.27;;;22.50;51.90;;;;;;4992105;28;20474;-62
2023/12/22 03:48:32;;;;;;;12.50;12.20;;;22.50;51.90;;;;;;4992013;28;20490;-62
2023/12/22 03:50:59;;;;;;;12.80;12.50;;;22.50;51.90;;;;;;4986769;28;20452;-62
2023/12/22 03:53:25;;;;;;;13.77;13.40;;;22.50;51.90;;;;;;4972790;28;20444;-62
2023/12/22 03:55:52;;;;;;;12.77;12.47;;;22.50;51.90;;;;;;4972470;28;20475;-62
2023/12/22 03:58:19;;;;;;;13.43;12.93;;;22.50;51.90;;;;;;4975984;28;20498;-62
2023/12/22 04:00:46;;;;;;;13.43;12.93;;;22.50;51.90;;;;;;4976150;28;20479;-62
2023/12/22 04:03:13;;;;;;;13.30;12.80;;;22.50;51.90;;;;;;4982859;28;20482;-62
2023/12/22 04:05:41;;;;;;;12.83;12.43;;;22.50;51.90;;;;;;4995529;28;20497;-63
2023/12/22 04:08:08;;;;;;;13.73;13.33;;;22.50;52.00;;;;;;4995268;28;20498;-62
2023/12/22 04:10:35;;;;;;;13.10;12.70;;;22.50;52.00;;;;;;4995441;28;20478;-62
2023/12/22 04:13:02;;;;;;;14.03;13.63;;;22.50;52.00;;;;;;4995766;28;20489;-63
2023/12/22 04:15:29;;;;;;;13.27;12.87;;;22.50;52.00;;;;;;4986225;28;20450;-62
2023/12/22 04:17:56;;;;;;;13.50;13.20;;;22.50;52.00;;;;;;4975644;28;20577;-62
2023/12/22 04:20:23;;;;;;;14.77;14.30;;;22.50;52.00;;;;;;4975771;28;20472;-63
2023/12/22 04:22:52;;;;;;;14.13;13.70;;;22.50;52.00;;;;;;4975760;28;20537;-62
2023/12/22 04:25:19;;;;;;;13.20;12.83;;;22.50;52.10;;;;;;4975737;28;20483;-63
2023/12/22 04:27:45;;;;;;;13.00;12.70;;;22.50;52.20;;;;;;4988639;28;20498;-62
2023/12/22 04:30:13;;;;;;;14.37;13.80;;;22.50;52.00;;;;;;4994888;28;20486;-62
2023/12/22 04:32:40;;;;;;;13.80;13.40;;;22.50;52.10;;;;;;4995010;28;20477;-62
2023/12/22 04:35:07;;;;;;;14.70;14.30;;;22.50;52.00;;;;;;4989360;28;20499;-62
2023/12/22 04:37:34;;;;;;;16.20;15.60;;;22.50;52.10;;;;;;4975393;28;20498;-63
2023/12/22 04:40:03;;;;;;;16.03;15.43;;;22.50;52.00;;;;;;4975529;28;20874;-62
2023/12/22 04:42:30;;;;;;;14.90;14.40;;;22.50;52.00;;;;;;4975345;28;20858;-62
2023/12/22 04:44:57;;;;;;;15.10;14.60;;;22.50;52.00;;;;;;4979110;28;20966;-62
2023/12/22 04:47:25;;;;;;;14.17;13.57;;;22.50;52.00;;;;;;4994567;28;20499;-62
2023/12/22 04:49:52;;;;;;;13.73;13.33;;;22.50;51.80;;;;;;4994762;28;20482;-62
2023/12/22 04:52:19;;;;;;;14.43;14.03;;;22.50;51.80;;;;;;4994659;28;20443;-62
2023/12/22 04:54:45;;;;;;;14.63;14.10;;;22.50;51.60;;;;;;4994553;28;20438;-62
2023/12/22 04:57:14;;;;;;;14.47;13.97;;;22.50;51.70;;;;;;4986281;28;20522;-62
2023/12/22 04:59:40;;;;;;;15.50;15.00;;;22.50;51.70;;;;;;4976081;28;20486;-62
2023/12/22 05:02:07;;;;;;;16.20;15.60;;;22.50;51.80;;;;;;4989364;28;20518;-63
2023/12/22 05:04:34;;;;;;;16.83;16.33;;;22.50;51.80;;;;;;4974946;28;20479;-62
2023/12/22 05:07:06;;;;;;;16.83;16.33;;;22.50;51.70;;;;;;4974356;28;20490;-62
2023/12/22 05:09:33;;;;;;;17.03;16.40;;;22.50;51.70;;;;;;4976269;28;20448;-62
2023/12/22 05:12:00;;;;;;;15.40;14.90;;;22.60;51.80;;;;;;4974865;28;20482;-62
2023/12/22 05:14:28;;;;;;;15.47;14.97;;;22.60;51.70;;;;;;4974704;28;20444;-62
2023/12/22 05:16:56;;;;;;;16.43;15.93;;;22.60;51.70;;;;;;4975990;28;20472;-62
2023/12/22 05:19:23;;;;;;;16.97;16.47;;;22.60;51.60;;;;;;4994268;28;20506;-62
2023/12/22 05:21:52;;;;;;;16.80;16.23;;;22.60;51.50;;;;;;4994083;28;20518;-62
2023/12/22 05:24:19;;;;;;;15.93;15.43;;;22.60;51.40;;;;;;4994194;28;20450;-62
2023/12/22 05:26:46;;;;;;;16.47;15.47;;;22.60;51.50;;;;;;4993584;28;20470;-62
2023/12/22 05:29:13;;;;;;;16.37;15.87;;;22.60;51.50;;;;;;4954985;29;20504;-62
2023/12/22 05:31:41;;;;;;;16.53;16.03;;;22.60;51.50;;;;;;4955121;29;20441;-62
2023/12/22 05:34:10;;;;;;;16.63;16.13;;;22.60;51.50;;;;;;4955089;29;20445;-62
2023/12/22 05:36:37;;;;;;;17.20;16.53;;;22.60;51.50;;;;;;4978872;28;20447;-63
2023/12/22 05:39:04;;;;;;;15.90;15.40;;;22.60;51.40;;;;;;4993734;28;20473;-62
2023/12/22 05:41:31;;;;;;;17.07;16.47;;;22.60;51.40;;;;;;4993604;28;20554;-62
2023/12/22 05:43:58;;;;;;;16.27;15.77;;;22.60;51.20;;;;;;4993733;28;20989;-62
2023/12/22 05:46:24;;;;;;;16.67;16.17;;;22.60;51.20;;;;;;4983315;28;20472;-62
2023/12/22 05:48:53;;;;;;;18.20;17.70;;;22.60;51.20;;;;;;4974046;28;20503;-62
2023/12/22 05:51:20;;;;;;;16.53;15.93;;;22.60;51.30;;;;;;4973989;28;20486;-62
2023/12/22 05:53:46;;;;;;;16.17;15.73;;;22.60;51.30;;;;;;4973918;28;20475;-62
2023/12/22 05:56:20;;;;;;;16.83;16.20;;;22.60;51.20;;;;;;4974030;28;20884;-62
2023/12/22 05:58:47;;;;;;;15.80;15.40;;;22.60;51.20;;;;;;4988601;28;20518;-62
2023/12/22 06:01:18;;;;;;;18.10;17.50;;;22.60;51.20;;;;;;4993258;28;20891;-62
2023/12/22 06:03:45;;;;;;;18.53;17.73;;;22.70;51.70;;;;;;4993117;28;20577;-62
2023/12/22 06:06:13;;;;;;;17.50;17.00;;;22.70;51.10;;;;;;4993150;28;20471;-62
2023/12/22 06:08:40;;;;;;;18.07;17.57;;;22.70;51.60;;;;;;4993195;28;20491;-62
2023/12/22 06:11:07;;;;;;;18.37;17.87;;;22.60;50.90;;;;;;4976232;28;20473;-62
2023/12/22 06:13:34;;;;;;;18.03;17.53;;;22.60;50.80;;;;;;4973598;28;21120;-62
2023/12/22 06:16:01;;;;;;;17.07;16.60;;;22.70;51.00;;;;;;4973674;28;20471;-62
2023/12/22 06:18:28;;;;;;;17.80;17.30;;;22.70;51.00;;;;;;4973265;28;20499;-62
2023/12/22 06:20:55;;;;;;;18.47;17.97;;;22.70;51.00;;;;;;4973536;28;20483;-62
2023/12/22 06:23:23;;;;;;;16.00;15.50;;;22.70;51.10;;;;;;4992808;28;20482;-62
2023/12/22 06:25:50;;;;;;;17.53;17.03;;;22.70;51.00;;;;;;4993009;28;20545;-62
2023/12/22 06:28:17;;;;;;;17.73;17.03;;;22.70;51.00;;;;;;5015557;23;21001;-64
2023/12/22 06:30:46;;;;;;;16.73;16.23;;;22.70;51.00;;;;;;4992586;28;20449;-64
2023/12/22 06:33:13;;;;;;;16.73;16.20;;;22.70;51.00;;;;;;4992442;28;20442;-64
2023/12/22 06:35:41;;;;;;;17.53;17.00;;;22.70;51.00;;;;;;4996329;28;20470;-64
2023/12/22 06:38:09;;;;;;;17.37;16.83;;;22.70;51.10;;;;;;4984680;28;20471;-64
2023/12/22 06:40:37;;;;;;;18.07;17.37;;;22.70;51.10;;;;;;4992464;28;20469;-64
2023/12/22 06:43:05;;;;;;;17.93;17.33;;;22.70;51.10;;;;;;5001552;28;21001;-64
2023/12/22 06:45:32;;;;;;;17.87;17.33;;;22.70;51.10;;;;;;4992657;28;20537;-65
2023/12/22 06:47:59;;;;;;;17.00;16.60;;;22.70;51.10;;;;;;4992240;28;20594;-65
2023/12/22 06:50:26;;;;;;;16.07;15.67;;;22.70;51.10;;;;;;4992302;28;20807;-65
2023/12/22 06:52:53;;;;;;;17.80;17.17;;;22.70;51.10;;;;;;4993142;28;20443;-65
2023/12/22 06:55:20;;;;;;;17.87;17.27;;;22.70;51.10;;;;;;4992472;28;20820;-65
2023/12/22 06:57:48;;;;;;;16.80;16.30;;;22.70;51.10;;;;;;4992034;28;20517;-65
2023/12/22 07:00:16;;;;;;;16.10;15.60;;;22.80;51.10;;;;;;4992212;28;20498;-65
2023/12/22 07:02:43;;;;;;;17.90;17.20;;;22.70;51.00;;;;;;4992128;28;20510;-65
2023/12/22 07:05:36;;;;;;;16.93;16.40;;;22.80;51.00;;;;;;4999134;28;20445;-65
2023/12/22 07:08:04;;;;;;;15.83;15.43;;;22.80;51.00;;;;;;4995919;28;20479;-65
2023/12/22 07:10:31;;;;;;;17.93;17.33;;;22.80;51.00;;;;;;4992036;28;20470;-65
2023/12/22 07:13:00;;;;;;;17.40;16.57;;;22.80;50.90;;;;;;4992166;28;20466;-65
2023/12/22 07:15:28;;;;;;;17.63;17.03;;;22.80;50.80;;;;;;4992263;28;20443;-65
2023/12/22 07:17:55;;;;;;;17.30;16.80;;;22.80;50.90;;;;;;4997659;28;20502;-65
2023/12/22 07:20:22;;;;;;;16.93;16.43;;;22.80;50.90;;;;;;4991933;28;20515;-65
2023/12/22 07:22:48;;;;;;;17.63;17.00;;;22.80;50.90;;;;;;4991846;28;20514;-65
2023/12/22 07:25:15;;;;;;;16.70;16.20;;;22.80;50.80;;;;;;4995057;28;20483;-65
2023/12/22 07:27:42;;;;;;;17.47;16.97;;;22.80;50.90;;;;;;4991722;28;20505;-65
2023/12/22 07:30:15;;;;;;;16.20;15.80;;;22.80;50.90;;;;;;4992209;28;20470;-65
2023/12/22 07:32:44;;;;;;;16.60;16.00;;;22.80;50.80;;;;;;4995966;28;20527;-65
2023/12/22 07:35:11;;;;;;;17.30;16.80;;;22.80;50.70;;;;;;4990663;28;20453;-65
2023/12/22 07:37:38;;;;;;;17.47;16.97;;;22.80;50.80;;;;;;4998858;28;20475;-65
2023/12/22 07:40:07;;;;;;;18.23;17.73;;;22.80;50.70;;;;;;4995475;28;20443;-65
2023/12/22 07:42:33;;;;;;;17.60;17.03;;;22.80;50.50;;;;;;4995658;28;21002;-65
2023/12/22 07:45:00;;;;;;;17.37;16.87;;;22.80;50.60;;;;;;4995479;28;20876;-65
2023/12/22 07:47:29;;;;;;;18.13;17.50;;;22.80;50.60;;;;;;5000449;28;20497;-65
2023/12/22 07:49:55;;;;;;;17.80;17.10;;;22.80;50.70;;;;;;4995322;28;20478;-65
2023/12/22 07:52:22;;;;;;;17.53;17.03;;;22.80;50.70;;;;;;4995468;28;20474;-65
2023/12/22 07:54:49;;;;;;;18.33;17.73;;;22.80;50.60;;;;;;4995166;28;20476;-65
2023/12/22 07:57:16;;;;;;;19.00;18.40;;;22.80;50.70;;;;;;4995259;28;20447;-65
2023/12/22 07:59:43;;;;;;;16.90;16.50;;;22.80;50.60;;;;;;4998519;28;20485;-65
2023/12/22 08:02:10;;;;;;;17.90;17.40;;;22.80;50.70;;;;;;4995118;28;20526;-65
2023/12/22 08:04:38;;;;;;;17.13;16.53;;;22.80;50.60;;;;;;4995176;28;20443;-65
2023/12/22 08:07:06;;;;;;;16.50;16.00;;;22.90;50.70;;;;;;4995050;28;20474;-65
2023/12/22 08:09:33;;;;;;;17.60;17.00;;;22.80;50.70;;;;;;4995115;28;20505;-65
2023/12/22 08:12:00;;;;;;;18.50;17.90;;;22.90;50.70;;;;;;4996695;28;20521;-65
2023/12/22 08:14:27;;;;;;;17.87;17.37;;;22.80;50.70;;;;;;4995437;28;20474;-65
2023/12/22 08:16:54;;;;;;;18.67;18.07;;;22.90;50.80;;;;;;4994934;28;20474;-65
2023/12/22 08:19:21;;;;;;;17.73;17.23;;;22.90;50.80;;;;;;4994852;28;20471;-65
2023/12/22 08:21:50;;;;;;;17.00;16.50;;;22.90;50.80;;;;;;4994868;28;20447;-65
2023/12/22 08:24:17;;;;;;;17.17;16.57;;;22.90;50.80;;;;;;4996255;28;20941;-65
2023/12/22 08:26:44;;;;;;;17.67;17.17;;;22.90;50.80;;;;;;4994791;28;20498;-65
2023/12/22 08:29:11;;;;;;;17.80;17.20;;;22.90;50.80;;;;;;4994490;28;20494;-66
2023/12/22 08:31:38;;;;;;;19.17;18.47;;;23.00;51.40;;;;;;4994857;28;20453;-67
2023/12/22 08:34:05;;;;;;;19.00;18.40;;;23.00;52.10;;;;;;4994686;28;20942;-66
2023/12/22 08:36:32;;;;;;;18.07;17.37;;;23.00;52.30;;;;;;5002070;28;20440;-66
2023/12/22 08:39:00;;;;;;;18.67;17.97;;;23.00;52.40;;;;;;4994443;28;20502;-68
2023/12/22 08:41:27;;;;;;;18.23;17.60;;;23.00;52.20;;;;;;4994361;28;20475;-68
2023/12/22 08:43:54;;;;;;;19.60;18.80;;;23.10;53.20;;;;;;4998755;28;20482;-67
2023/12/22 08:46:21;;;;;;;18.80;18.10;;;23.10;53.00;;;;;;4994448;28;20474;-65
2023/12/22 08:48:48;;;;;;;18.73;17.83;;;23.10;52.70;;;;;;4994994;28;20494;-65
2023/12/22 08:51:15;;;;;;;17.80;17.17;;;23.20;53.50;;;;;;4986506;28;20872;-68
2023/12/22 08:53:42;;;;;;;19.10;18.30;;;23.20;53.30;;;;;;4998120;28;20536;-65
2023/12/22 08:56:10;;;;;;;19.60;18.90;;;23.20;53.00;;;;;;4994798;28;20483;-66
2023/12/22 08:58:37;;;;;;;18.60;18.00;;;23.20;52.80;;;;;;4994271;28;20982;-66
2023/12/22 09:01:04;;;;;;;19.63;18.70;;;23.30;53.90;;;;;;4994109;28;20473;-66
2023/12/22 09:03:35;;;;;;;18.70;17.70;;;23.30;53.20;;;;;;4994102;28;20482;-66
2023/12/22 09:06:02;;;;;;;17.50;16.90;;;23.30;52.90;;;;;;4997774;28;20450;-65
2023/12/22 09:08:29;;;;;;;18.43;17.70;;;23.30;52.70;;;;;;4993989;28;20502;-65
2023/12/22 09:10:56;;;;;;;19.50;18.60;;;23.30;52.50;;;;;;4993858;28;20481;-66
2023/12/22 09:13:25;;;;;;;18.50;17.90;;;23.30;52.60;;;;;;4994005;28;20470;-66
2023/12/22 09:15:53;;;;;;;19.40;18.30;;;23.40;52.60;;;;;;4993898;28;20443;-66
2023/12/22 09:18:20;;;;;;;18.57;18.07;;;23.40;52.70;;;;;;4995921;28;20986;-64
2023/12/22 09:20:47;;;;;;;17.97;17.40;;;23.40;52.50;;;;;;4993801;28;20486;-66
2023/12/22 09:23:14;;;;;;;20.47;19.37;;;23.40;53.50;;;;;;4993491;28;20506;-67
2023/12/22 09:25:40;;;;;;;19.80;18.80;;;23.40;53.00;;;;;;4993799;28;20477;-67
2023/12/22 09:28:07;;;;;;;18.80;18.20;;;23.50;54.00;;;;;;4994524;28;20502;-66
2023/12/22 09:30:35;;;;;;;17.57;16.87;;;23.50;53.10;;;;;;4993437;28;20486;-68
2023/12/22 09:33:02;;;;;;;20.43;19.43;;;23.50;52.90;;;;;;4993379;28;20879;-66
2023/12/22 09:35:29;;;;;;;19.40;18.60;;;23.50;52.70;;;;;;4993516;28;20861;-67
2023/12/22 09:37:56;;;;;;;18.37;17.67;;;23.60;53.20;;;;;;4993082;28;21025;-67
2023/12/22 09:40:23;;;;;;;17.13;16.63;;;23.60;52.90;;;;;;4993322;28;20497;-67
2023/12/22 09:42:51;;;;;;;17.47;16.87;;;23.60;52.30;;;;;;4993417;28;21048;-67
2023/12/22 09:45:19;;;;;;;18.87;18.30;;;23.60;52.40;;;;;;4985466;28;20874;-67
2023/12/22 09:47:49;;;;;;;18.00;17.33;;;23.60;52.50;;;;;;4993226;28;20467;-67
2023/12/22 09:50:16;;;;;;;18.13;17.63;;;23.60;52.50;;;;;;4993283;28;20475;-67
2023/12/22 09:52:45;;;;;;;17.93;17.33;;;23.60;52.30;;;;;;4993140;28;20451;-66
2023/12/22 09:55:13;;;;;;;17.97;17.37;;;23.70;52.70;;;;;;4996622;28;20439;-67
2023/12/22 09:57:40;;;;;;;17.77;17.27;;;23.70;52.10;;;;;;4992960;28;20590;-67
2023/12/22 10:00:10;;;;;;;18.37;17.70;;;23.70;52.00;;;;;;4992956;28;20478;-67
2023/12/22 10:02:37;;;;;;;17.73;17.13;;;23.70;51.90;;;;;;4993023;28;20467;-68
2023/12/22 10:05:07;;;;;;;18.47;17.77;;;23.70;52.00;;;;;;4992901;28;20517;-66
2023/12/22 10:07:34;;;;;;;18.13;17.43;;;23.70;51.90;;;;;;4993875;28;20534;-67
2023/12/22 10:10:02;;;;;;;17.73;17.23;;;23.70;52.00;;;;;;4992680;28;20475;-65
2023/12/22 10:12:30;;;;;;;18.57;17.80;;;23.70;51.90;;;;;;4993008;28;20643;-66
2023/12/22 10:14:58;;;;;;;16.83;16.20;;;23.70;51.90;;;;;;4992662;28;20449;-67
2023/12/22 10:17:25;;;;;;;16.87;16.23;;;23.70;51.90;;;;;;4995549;28;20478;-66
2023/12/22 10:19:52;;;;;;;18.07;17.37;;;23.70;52.20;;;;;;4992612;28;20506;-67
2023/12/22 10:22:23;;;;;;;18.17;17.47;;;23.80;51.80;;;;;;4992785;28;20467;-67
2023/12/22 10:24:51;;;;;;;18.67;18.03;;;23.80;51.50;;;;;;4992668;28;20474;-67
2023/12/22 10:27:22;;;;;;;18.67;17.97;;;23.80;51.60;;;;;;4992498;28;20469;-66
2023/12/22 10:29:50;;;;;;;19.13;18.50;;;23.80;51.60;;;;;;4993557;28;20453;-67
2023/12/22 10:32:17;;;;;;;18.50;17.80;;;23.80;51.90;;;;;;4992689;28;20926;-66
2023/12/22 10:34:44;;;;;;;17.83;17.33;;;23.80;51.60;;;;;;4992584;28;20477;-66
2023/12/22 10:37:12;;;;;;;18.73;18.03;;;23.80;51.60;;;;;;4992299;28;20467;-67
2023/12/22 10:39:41;;;;;;;18.43;17.83;;;23.80;51.50;;;;;;4992325;28;20548;-66
2023/12/22 10:42:08;;;;;;;17.70;17.10;;;23.80;51.10;;;;;;5000360;28;20474;-67
2023/12/22 10:44:35;;;;;;;18.10;17.50;;;23.80;51.00;;;;;;4992425;28;20506;-66
2023/12/22 10:47:03;;;;;;;17.80;17.20;;;23.80;51.00;;;;;;4992086;28;20475;-66
2023/12/22 10:49:32;;;;;;;18.83;18.33;;;23.90;51.30;;;;;;4994052;28;20471;-67
2023/12/22 10:51:59;;;;;;;19.00;18.30;;;23.90;51.30;;;;;;4994836;28;20449;-66
2023/12/22 10:54:27;;;;;;;20.37;19.67;;;23.90;51.20;;;;;;4992261;28;20467;-67
2023/12/22 10:56:58;;;;;;;18.70;18.10;;;23.90;51.20;;;;;;4991974;28;20450;-66
2023/12/22 10:59:29;;;;;;;18.80;18.20;;;23.90;51.10;;;;;;4993101;28;20499;-67
2023/12/22 11:01:58;;;;;;;18.43;17.73;;;23.90;51.60;;;;;;4995147;28;20528;-67
2023/12/22 11:04:30;;;;;;;18.30;17.80;;;23.90;51.40;;;;;;4992185;28;20513;-68
2023/12/22 11:06:59;;;;;;;19.13;18.53;;;23.90;51.40;;;;;;4998150;28;20493;-67
2023/12/22 11:09:30;;;;;;;20.60;20.00;;;23.90;51.40;;;;;;4998696;28;20465;-67
2023/12/22 11:11:59;;;;;;;19.60;19.00;;;23.90;51.40;;;;;;5002776;28;20437;-66
2023/12/22 11:14:27;;;;;;;19.27;18.67;;;24.00;51.40;;;;;;4998649;28;20470;-66
2023/12/22 11:16:55;;;;;;;19.73;19.03;;;23.90;51.30;;;;;;4998457;28;20532;-67
2023/12/22 11:19:25;;;;;;;18.50;17.97;;;24.00;51.80;;;;;;4998407;28;20549;-66
2023/12/22 11:21:55;;;;;;;19.60;18.80;;;24.00;51.60;;;;;;4998527;28;20886;-68
2023/12/22 11:24:23;;;;;;;20.00;19.40;;;24.00;50.60;;;;;;5003465;28;20471;-68
2023/12/22 11:26:52;;;;;;;19.17;18.57;;;24.00;51.00;;;;;;4998566;28;20481;-68
2023/12/22 11:29:24;;;;;;;20.10;19.30;;;24.00;51.00;;;;;;4998420;28;20498;-67
2023/12/22 11:31:53;;;;;;;20.80;20.20;;;24.00;51.10;;;;;;5000069;28;20430;-66
2023/12/22 11:34:22;;;;;;;20.37;19.67;;;24.00;51.10;;;;;;4990312;28;20477;-67
2023/12/22 11:36:51;;;;;;;19.20;18.60;;;24.00;51.00;;;;;;4998446;28;20470;-67
2023/12/22 11:39:18;;;;;;;20.20;19.60;;;24.00;51.00;;;;;;4998255;28;20993;-67
2023/12/22 11:41:45;;;;;;;18.67;18.07;;;24.00;50.90;;;;;;4998929;28;20497;-68
2023/12/22 11:44:13;;;;;;;18.70;18.20;;;24.00;51.00;;;;;;4999222;28;20506;-68
2023/12/22 11:46:42;;;;;;;20.23;19.63;;;24.00;51.40;;;;;;4998265;28;20470;-68
2023/12/22 11:49:09;;;;;;;20.90;20.20;;;24.00;51.50;;;;;;4998001;28;20466;-68
2023/12/22 11:51:36;;;;;;;19.80;19.17;;;24.10;51.50;;;;;;5005544;28;20481;-68
2023/12/22 11:54:03;;;;;;;18.87;18.37;;;24.00;51.30;;;;;;4998158;28;20474;-67
2023/12/22 11:56:31;;;;;;;19.33;18.60;;;24.00;51.30;;;;;;4998318;28;20466;-65
2023/12/22 11:58:59;;;;;;;19.90;19.30;;;24.00;51.10;;;;;;4998068;28;20869;-66
2023/12/22 12:01:29;;;;;;;20.17;19.57;;;24.10;51.10;;;;;;4999105;28;20800;-66
2023/12/22 12:03:58;;;;;;;19.17;18.57;;;24.10;51.60;;;;;;4998842;28;20485;-66
2023/12/22 12:06:37;;;;;;;19.03;18.43;;;24.10;51.20;;;;;;4994141;28;20450;-65
2023/12/22 12:09:08;;;;;;;20.43;19.83;;;24.10;51.10;;;;;;4997997;28;20489;-65
2023/12/22 12:12:12;;;;;;;18.73;18.07;;;24.00;50.90;;;;;;4998074;28;20442;-67
2023/12/22 12:14:44;;;;;;;18.73;18.13;;;24.00;50.80;;;;;;4995286;28;20470;-67
2023/12/22 12:17:11;;;;;;;18.80;18.30;;;24.10;51.10;;;;;;4995748;28;20474;-68
2023/12/22 12:19:41;;;;;;;19.23;18.63;;;24.10;51.20;;;;;;4994685;28;20836;-68
2023/12/22 12:22:09;;;;;;;19.00;18.40;;;24.10;51.20;;;;;;4994722;28;20447;-66
2023/12/22 12:24:37;;;;;;;18.57;18.07;;;24.10;51.10;;;;;;4994841;28;20506;-65
2023/12/22 12:27:05;;;;;;;17.57;17.07;;;24.10;50.90;;;;;;4995031;28;20449;-64
2023/12/22 12:29:33;;;;;;;18.80;18.30;;;24.10;51.00;;;;;;4994782;28;20505;-67
2023/12/22 12:32:05;;;;;;;18.33;17.83;;;24.10;51.00;;;;;;4994547;28;20954;-67